Time;durP1;ratioP1;P1;durP2;ratioP2;P2;SDS_P1;SDS_P2;PMS_P1;PMS_P2;Temp;Humidity;BMP_temperature;BMP_pressure;BME280_temperature;BME280_humidity;BME280_pressure;Samples;Min_cycle;Max_cycle;Signal;HPM_P1;HPM_P2
2021/04/02 06:11:24;;;;;;;14.90;2.33;;;5.80;99.90;;;;;;3703673;34;20385;-72
2021/04/02 06:13:50;;;;;;;13.93;2.05;;;5.60;99.90;;;;;;3598132;39;20080;-73
2021/04/02 06:16:17;;;;;;;12.27;2.42;;;5.70;99.90;;;;;;3597755;39;20172;-72
2021/04/02 06:18:42;;;;;;;12.68;2.80;;;5.70;99.90;;;;;;3598523;39;20160;-73
2021/04/02 06:21:08;;;;;;;15.23;2.53;;;5.70;99.90;;;;;;3601531;39;20171;-73
2021/04/02 06:23:36;;;;;;;13.27;1.85;;;5.80;99.90;;;;;;3600815;39;20304;-72
2021/04/02 06:26:05;;;;;;;15.30;2.13;;;5.80;99.90;;;;;;3593129;39;20113;-73
2021/04/02 06:28:33;;;;;;;13.27;1.77;;;5.80;99.90;;;;;;3597325;39;20082;-72
2021/04/02 06:31:14;;;;;;;10.05;2.00;;;5.90;99.90;;;;;;3596851;39;20853;-73
2021/04/02 06:33:51;;;;;;;22.65;2.75;;;6.00;99.90;;;;;;3601278;39;20525;-73
2021/04/02 06:36:23;;;;;;;13.10;2.70;;;5.90;99.90;;;;;;3599161;39;20083;-72
2021/04/02 06:39:00;;;;;;;21.23;2.75;;;6.00;99.90;;;;;;3597666;39;20066;-70
2021/04/02 06:41:27;;;;;;;15.35;2.35;;;6.20;99.90;;;;;;3596755;39;20392;-70
2021/04/02 06:44:05;;;;;;;15.63;2.45;;;6.10;99.90;;;;;;3597334;39;20071;-71
2021/04/02 06:46:33;;;;;;;15.73;3.65;;;6.20;99.90;;;;;;3597511;39;20076;-70
2021/04/02 06:49:16;;;;;;;12.15;1.60;;;6.20;99.90;;;;;;3596377;39;20095;-70
2021/04/02 06:51:47;;;;;;;19.75;2.20;;;6.30;99.90;;;;;;3597577;39;20080;-70
2021/04/02 06:54:15;;;;;;;12.88;2.60;;;6.20;99.90;;;;;;3596059;39;20337;-70
2021/04/02 06:57:04;;;;;;;17.13;2.75;;;6.20;99.90;;;;;;3606475;39;20402;-71
2021/04/02 06:59:33;;;;;;;11.82;1.98;;;6.10;99.90;;;;;;3607578;39;20377;-72
2021/04/02 07:02:04;;;;;;;12.50;2.67;;;6.20;99.90;;;;;;3605743;39;20075;-72
2021/04/02 07:04:31;;;;;;;20.55;2.63;;;6.20;99.90;;;;;;3603854;39;20157;-70
2021/04/02 07:06:59;;;;;;;15.40;1.95;;;6.30;99.90;;;;;;3598161;39;20079;-72
2021/04/02 07:09:27;;;;;;;13.57;3.00;;;6.30;99.90;;;;;;3597515;39;20072;-70
2021/04/02 07:11:59;;;;;;;19.92;2.33;;;6.20;99.90;;;;;;3607367;39;20320;-68
2021/04/02 07:14:26;;;;;;;12.93;2.47;;;6.30;99.90;;;;;;3614371;39;20406;-70
2021/04/02 07:16:53;;;;;;;16.95;2.65;;;6.30;99.90;;;;;;3607076;39;20099;-71
2021/04/02 07:19:20;;;;;;;18.70;2.60;;;6.30;99.90;;;;;;3611660;39;20425;-70
2021/04/02 07:21:49;;;;;;;13.85;2.15;;;6.40;99.90;;;;;;3603467;39;20095;-70
2021/04/02 07:24:19;;;;;;;25.95;2.80;;;6.50;99.90;;;;;;3599631;39;20100;-68
2021/04/02 07:26:46;;;;;;;12.38;2.17;;;6.60;99.90;;;;;;3605988;39;20357;-73
2021/04/02 07:29:12;;;;;;;21.10;3.53;;;6.50;99.90;;;;;;3600542;39;20071;-72
2021/04/02 07:31:43;;;;;;;12.85;2.58;;;6.50;99.90;;;;;;3593301;39;20106;-73
2021/04/02 07:34:10;;;;;;;8.38;2.10;;;6.50;99.90;;;;;;3610380;39;20099;-74
2021/04/02 07:36:36;;;;;;;17.98;2.90;;;6.60;99.90;;;;;;3610905;39;20150;-73
2021/04/02 07:39:05;;;;;;;20.77;3.67;;;6.60;99.90;;;;;;3608657;39;20083;-73
2021/04/02 07:41:37;;;;;;;20.00;2.42;;;6.50;99.90;;;;;;3596727;39;20103;-73
2021/04/02 07:44:06;;;;;;;15.45;2.22;;;6.60;99.90;;;;;;3601902;39;20076;-73
2021/04/02 07:46:31;;;;;;;13.60;2.08;;;6.50;99.90;;;;;;3604243;39;20383;-73
2021/04/02 07:49:08;;;;;;;16.13;3.03;;;6.60;99.90;;;;;;3599908;39;20086;-74
2021/04/02 07:51:39;;;;;;;11.15;2.47;;;6.70;99.90;;;;;;3600416;39;20075;-72
2021/04/02 07:54:12;;;;;;;9.27;2.13;;;6.90;99.90;;;;;;3600324;39;20080;-72
2021/04/02 07:56:38;;;;;;;13.68;3.25;;;6.80;99.90;;;;;;3601596;39;20080;-73
2021/04/02 07:59:05;;;;;;;15.77;3.35;;;7.00;99.90;;;;;;3599791;39;20082;-72
2021/04/02 08:01:32;;;;;;;14.98;2.97;;;7.10;99.90;;;;;;3591809;39;20678;-72
2021/04/02 08:04:02;;;;;;;14.02;2.53;;;7.10;99.90;;;;;;3601411;39;20422;-71
2021/04/02 08:06:37;;;;;;;17.27;2.45;;;6.90;99.90;;;;;;3601529;39;20163;-74
2021/04/02 08:09:07;;;;;;;19.08;3.60;;;7.10;99.90;;;;;;3604489;39;20180;-72
2021/04/02 08:11:47;;;;;;;15.43;2.22;;;7.20;99.90;;;;;;3606646;39;20079;-72
2021/04/02 08:14:14;;;;;;;20.05;2.63;;;7.30;99.90;;;;;;3601826;39;20296;-73
2021/04/02 08:16:48;;;;;;;14.10;3.08;;;7.10;99.90;;;;;;3601530;39;20072;-73
2021/04/02 08:19:15;;;;;;;13.20;2.55;;;7.00;99.90;;;;;;3604981;39;20079;-73
2021/04/02 08:21:45;;;;;;;20.58;3.03;;;7.20;99.90;;;;;;3599070;39;20264;-73
2021/04/02 08:24:12;;;;;;;13.50;2.90;;;7.20;99.90;;;;;;3597345;39;20304;-72
2021/04/02 08:26:40;;;;;;;15.02;2.58;;;7.10;99.90;;;;;;3604703;39;20086;-74
2021/04/02 08:29:07;;;;;;;12.77;3.13;;;7.00;99.90;;;;;;3602139;39;20083;-73
2021/04/02 08:31:35;;;;;;;13.30;2.40;;;7.00;99.90;;;;;;3600244;39;20072;-72
2021/04/02 08:34:01;;;;;;;13.07;3.13;;;7.10;99.90;;;;;;3605513;39;20294;-73
2021/04/02 08:36:29;;;;;;;11.25;2.05;;;7.10;99.90;;;;;;3593318;39;20063;-72
2021/04/02 08:38:55;;;;;;;23.00;3.60;;;7.00;99.90;;;;;;3599860;39;20416;-72
2021/04/02 08:41:23;;;;;;;8.88;2.13;;;7.40;99.90;;;;;;3602775;39;20162;-71
2021/04/02 08:43:50;;;;;;;13.75;2.40;;;7.20;99.90;;;;;;3600582;39;20212;-72
2021/04/02 08:46:17;;;;;;;13.07;2.55;;;7.30;99.90;;;;;;3599555;39;20072;-72
2021/04/02 08:48:46;;;;;;;14.98;2.28;;;7.30;99.90;;;;;;3600486;39;20076;-73
2021/04/02 08:51:20;;;;;;;14.10;2.50;;;7.20;99.90;;;;;;3599138;39;20086;-71
2021/04/02 08:53:46;;;;;;;15.07;2.83;;;7.10;99.90;;;;;;3600654;39;20411;-73
2021/04/02 08:56:20;;;;;;;14.38;2.97;;;7.00;99.90;;;;;;3599375;39;20107;-71
2021/04/02 08:58:47;;;;;;;17.65;2.88;;;7.00;99.90;;;;;;3599403;39;20075;-72
2021/04/02 09:01:15;;;;;;;15.45;3.33;;;7.00;99.90;;;;;;3607187;39;20072;-73
2021/04/02 09:03:42;;;;;;;16.85;3.08;;;6.90;99.90;;;;;;3600771;39;20133;-72
2021/04/02 09:06:08;;;;;;;8.88;1.70;;;7.10;99.90;;;;;;3602248;39;20290;-71
2021/04/02 09:08:35;;;;;;;13.45;2.50;;;7.00;99.90;;;;;;3601599;39;20473;-73
2021/04/02 09:11:01;;;;;;;14.95;2.42;;;7.00;99.90;;;;;;3480568;32;20064;-73
2021/04/02 09:13:34;;;;;;;12.35;2.58;;;6.90;99.90;;;;;;3583794;40;20060;-73
2021/04/02 09:16:05;;;;;;;12.45;2.53;;;6.90;99.90;;;;;;3580034;39;20171;-72
2021/04/02 09:18:31;;;;;;;15.93;3.08;;;7.00;99.90;;;;;;3580041;40;20088;-73
2021/04/02 09:20:57;;;;;;;10.23;2.20;;;7.00;99.90;;;;;;3578151;40;20574;-74
2021/04/02 09:23:24;;;;;;;15.93;2.55;;;6.90;99.90;;;;;;3581128;40;20148;-73
2021/04/02 09:25:50;;;;;;;14.77;3.95;;;6.90;99.90;;;;;;3580236;40;20378;-73
2021/04/02 09:28:24;;;;;;;21.55;3.63;;;6.80;99.90;;;;;;3581897;40;20427;-72
2021/04/02 09:30:50;;;;;;;15.30;2.25;;;6.80;99.90;;;;;;3581946;40;20072;-71
2021/04/02 09:33:19;;;;;;;16.88;2.15;;;7.10;99.90;;;;;;3581143;40;20453;-72
2021/04/02 09:35:45;;;;;;;10.63;2.38;;;7.00;99.90;;;;;;3581556;40;20088;-71
2021/04/02 09:38:11;;;;;;;16.67;2.35;;;7.00;99.90;;;;;;3587122;40;20103;-73
2021/04/02 09:40:37;;;;;;;7.43;1.83;;;7.30;99.90;;;;;;3579624;40;20422;-72
2021/04/02 09:43:04;;;;;;;7.07;1.63;;;7.50;99.90;;;;;;3580713;40;20073;-72
2021/04/02 09:45:30;;;;;;;13.23;2.50;;;7.20;99.90;;;;;;3578956;40;20077;-73
2021/04/02 09:47:55;;;;;;;17.80;2.17;;;7.20;99.90;;;;;;3580010;40;20185;-73
2021/04/02 09:50:21;;;;;;;11.82;2.38;;;7.20;99.90;;;;;;3580871;40;20507;-74
2021/04/02 09:52:47;;;;;;;12.52;2.17;;;7.00;99.90;;;;;;3581235;40;20118;-72
2021/04/02 09:55:14;;;;;;;17.70;2.97;;;7.20;99.90;;;;;;3576794;40;20210;-73
2021/04/02 09:57:40;;;;;;;8.20;2.30;;;7.10;99.90;;;;;;3574462;40;20076;-74
2021/04/02 10:00:11;;;;;;;11.68;2.25;;;7.10;99.90;;;;;;3578709;40;20329;-74
2021/04/02 10:02:37;;;;;;;12.35;2.55;;;7.10;99.90;;;;;;3577568;40;20080;-74
2021/04/02 10:05:05;;;;;;;9.48;2.28;;;7.20;99.90;;;;;;3579376;40;20073;-74
2021/04/02 10:07:31;;;;;;;16.05;2.10;;;7.20;99.90;;;;;;3580878;40;20088;-73
2021/04/02 10:09:57;;;;;;;10.50;2.00;;;7.20;99.90;;;;;;3579488;40;20295;-72
2021/04/02 10:12:22;;;;;;;12.75;2.40;;;7.10;99.90;;;;;;3579023;40;20083;-75
2021/04/02 10:14:48;;;;;;;25.60;2.83;;;7.00;99.90;;;;;;3579065;40;20313;-74
2021/04/02 10:17:14;;;;;;;10.55;2.17;;;6.90;99.90;;;;;;3578417;40;20092;-73
2021/04/02 10:19:41;;;;;;;13.45;2.05;;;6.90;99.90;;;;;;3576640;40;20190;-74
2021/04/02 10:22:07;;;;;;;13.57;3.15;;;6.90;99.90;;;;;;3578415;40;20096;-74
2021/04/02 10:24:32;;;;;;;9.50;1.73;;;7.00;99.90;;;;;;3580065;40;20108;-74
2021/04/02 10:26:59;;;;;;;10.35;1.80;;;7.10;99.90;;;;;;3578728;40;20084;-73
2021/04/02 10:29:28;;;;;;;13.10;2.08;;;6.90;99.90;;;;;;3584239;40;20080;-72
2021/04/02 10:31:54;;;;;;;13.60;3.72;;;7.00;99.90;;;;;;3580508;40;20160;-72
2021/04/02 10:34:20;;;;;;;11.07;1.92;;;7.20;99.90;;;;;;3577635;40;20080;-74
2021/04/02 10:36:45;;;;;;;11.80;2.10;;;7.10;99.90;;;;;;3580304;40;20077;-73
2021/04/02 10:39:11;;;;;;;10.90;1.60;;;7.30;99.90;;;;;;3579880;40;20088;-72
2021/04/02 10:41:38;;;;;;;14.00;2.50;;;7.30;99.90;;;;;;3579624;40;20096;-77
2021/04/02 10:44:04;;;;;;;17.13;3.65;;;7.10;99.90;;;;;;3578528;40;20081;-72
2021/04/02 10:46:30;;;;;;;19.25;2.90;;;7.00;99.90;;;;;;3579087;40;20235;-74
2021/04/02 10:48:56;;;;;;;14.68;2.30;;;7.10;99.90;;;;;;3580021;40;20156;-73
2021/04/02 10:51:22;;;;;;;15.65;2.85;;;7.00;99.90;;;;;;3578053;40;20171;-73
2021/04/02 10:53:49;;;;;;;18.27;3.25;;;7.10;99.90;;;;;;3580764;40;20251;-74
2021/04/02 10:56:14;;;;;;;13.65;2.17;;;7.00;99.90;;;;;;3579573;40;20151;-73
2021/04/02 10:58:40;;;;;;;15.80;2.42;;;7.00;99.90;;;;;;3581787;40;20245;-73
2021/04/02 11:01:06;;;;;;;13.93;2.38;;;6.90;99.90;;;;;;3580978;40;20104;-74
2021/04/02 11:03:31;;;;;;;14.80;2.35;;;7.00;99.90;;;;;;3581293;40;20076;-74
2021/04/02 11:05:57;;;;;;;11.85;1.88;;;7.00;99.90;;;;;;3580050;40;20122;-74
2021/04/02 11:08:23;;;;;;;13.57;2.13;;;7.20;99.90;;;;;;3581363;40;20081;-73
2021/04/02 11:10:49;;;;;;;8.48;2.22;;;7.20;99.90;;;;;;3580181;40;20089;-74
2021/04/02 11:13:14;;;;;;;9.35;2.25;;;7.20;99.90;;;;;;3581283;40;20340;-74
2021/04/02 11:15:40;;;;;;;10.65;2.20;;;7.00;99.90;;;;;;3580647;40;20073;-74
2021/04/02 11:18:06;;;;;;;19.65;2.97;;;7.00;99.90;;;;;;3579877;40;20155;-73
2021/04/02 11:20:32;;;;;;;19.58;2.45;;;7.00;99.90;;;;;;3575637;40;20422;-74
2021/04/02 11:22:58;;;;;;;16.88;2.45;;;7.00;99.90;;;;;;3580766;40;20097;-74
2021/04/02 11:25:25;;;;;;;13.60;2.30;;;7.20;99.90;;;;;;3581029;40;20087;-73
2021/04/02 11:27:51;;;;;;;19.85;2.85;;;7.60;99.90;;;;;;3580512;40;20085;-75
2021/04/02 11:30:18;;;;;;;13.80;2.33;;;7.30;99.90;;;;;;3580684;40;20347;-73
2021/04/02 11:32:44;;;;;;;23.48;3.08;;;7.30;99.90;;;;;;3581363;40;20132;-73
2021/04/02 11:35:11;;;;;;;15.07;2.40;;;7.60;99.90;;;;;;3579714;40;20105;-73
2021/04/02 11:37:37;;;;;;;10.65;2.03;;;7.40;99.90;;;;;;3580719;40;20081;-73
2021/04/02 11:40:05;;;;;;;16.30;2.67;;;7.40;99.90;;;;;;3581253;40;20144;-74
2021/04/02 11:42:30;;;;;;;17.60;3.25;;;7.60;99.90;;;;;;3579867;40;20076;-74
2021/04/02 11:44:56;;;;;;;13.57;2.97;;;7.70;99.90;;;;;;3581225;40;20108;-73
2021/04/02 11:47:22;;;;;;;12.38;2.88;;;7.80;99.90;;;;;;3579851;40;20378;-73
2021/04/02 11:49:47;;;;;;;13.77;2.10;;;7.70;99.90;;;;;;3581034;40;20198;-74
2021/04/02 11:52:13;;;;;;;19.15;3.38;;;7.90;99.90;;;;;;3580760;40;20159;-73
2021/04/02 11:54:39;;;;;;;16.55;2.42;;;7.80;99.90;;;;;;3580025;40;20077;-73
2021/04/02 11:57:05;;;;;;;9.73;2.08;;;8.00;99.90;;;;;;3581278;40;20084;-74
2021/04/02 11:59:31;;;;;;;10.73;1.80;;;8.10;99.90;;;;;;3579876;40;20069;-73
2021/04/02 12:01:56;;;;;;;13.68;2.10;;;8.40;99.90;;;;;;3582009;40;20608;-73
2021/04/02 12:04:22;;;;;;;13.77;2.25;;;8.60;99.90;;;;;;3580590;40;20689;-73
2021/04/02 12:06:47;;;;;;;21.13;2.60;;;8.50;99.90;;;;;;3581586;40;20076;-74
2021/04/02 12:09:13;;;;;;;16.42;1.90;;;8.60;99.90;;;;;;3579803;40;20155;-73
2021/04/02 12:11:39;;;;;;;18.20;1.50;;;8.70;99.90;;;;;;3581385;40;20520;-73
2021/04/02 12:14:06;;;;;;;15.65;2.67;;;8.80;99.90;;;;;;3580850;40;20313;-74
2021/04/02 12:16:32;;;;;;;4.07;1.45;;;9.30;99.90;;;;;;3580704;40;20164;-73
2021/04/02 12:18:59;;;;;;;9.10;1.42;;;8.90;99.90;;;;;;3580393;40;20100;-73
2021/04/02 12:21:26;;;;;;;10.25;1.70;;;8.90;99.90;;;;;;3571560;40;20578;-73
2021/04/02 12:23:52;;;;;;;9.13;1.83;;;9.40;99.90;;;;;;3577861;40;20073;-73
2021/04/02 12:26:17;;;;;;;7.30;1.55;;;10.30;99.90;;;;;;3580914;40;20085;-74
2021/04/02 12:28:43;;;;;;;13.70;2.30;;;10.90;99.90;;;;;;3580091;40;20159;-73
2021/04/02 12:31:09;;;;;;;3.55;1.02;;;11.10;99.90;;;;;;3579895;40;20099;-74
2021/04/02 12:33:34;;;;;;;7.00;2.63;;;10.70;99.90;;;;;;3580467;40;20402;-73
2021/04/02 12:36:00;;;;;;;10.70;1.45;;;10.40;99.90;;;;;;3579471;40;20193;-74
2021/04/02 12:38:26;;;;;;;12.93;1.90;;;10.50;99.90;;;;;;3580998;40;20089;-74
2021/04/02 12:40:52;;;;;;;11.15;2.50;;;10.10;99.90;;;;;;3579644;40;20084;-75
2021/04/02 12:43:18;;;;;;;8.02;1.63;;;10.50;99.90;;;;;;3580627;40;20680;-74
2021/04/02 12:45:44;;;;;;;7.82;1.80;;;10.30;99.90;;;;;;3579752;40;20086;-75
2021/04/02 12:48:09;;;;;;;7.78;2.35;;;10.50;99.90;;;;;;3579817;40;20079;-74
2021/04/02 12:50:36;;;;;;;15.93;3.08;;;10.50;99.90;;;;;;3579392;40;20081;-74
2021/04/02 12:53:02;;;;;;;6.55;1.67;;;10.50;99.90;;;;;;3580821;40;20394;-72
2021/04/02 12:55:30;;;;;;;12.95;2.15;;;10.10;99.90;;;;;;3579561;40;20088;-74
2021/04/02 12:57:56;;;;;;;12.55;2.80;;;10.30;99.90;;;;;;3580290;40;20457;-73
2021/04/02 13:00:28;;;;;;;12.23;2.40;;;10.20;99.90;;;;;;3580203;40;20069;-72
2021/04/02 13:02:54;;;;;;;17.55;2.20;;;10.60;99.90;;;;;;3579882;40;20163;-73
2021/04/02 13:05:21;;;;;;;16.25;2.05;;;10.10;99.90;;;;;;3579937;40;20452;-74
2021/04/02 13:07:47;;;;;;;20.25;2.60;;;10.40;99.90;;;;;;3579598;40;20072;-73
2021/04/02 13:10:13;;;;;;;17.73;2.95;;;10.30;99.90;;;;;;3580038;40;20096;-73
2021/04/02 13:12:40;;;;;;;11.45;1.92;;;10.70;99.90;;;;;;3580442;40;20073;-74
2021/04/02 13:15:08;;;;;;;12.77;2.67;;;9.90;99.90;;;;;;3579739;40;20164;-72
2021/04/02 13:17:34;;;;;;;11.05;1.90;;;9.90;99.90;;;;;;3580397;40;20104;-75
2021/04/02 13:20:00;;;;;;;9.60;1.80;;;9.70;99.90;;;;;;3575815;40;20119;-74
2021/04/02 13:22:26;;;;;;;13.48;2.25;;;9.70;99.90;;;;;;3573541;40;20096;-73
2021/04/02 13:24:52;;;;;;;10.50;2.00;;;9.80;99.90;;;;;;3578835;40;20069;-73
2021/04/02 13:27:18;;;;;;;11.68;2.47;;;9.50;99.90;;;;;;3580526;40;20276;-74
2021/04/02 13:29:43;;;;;;;9.10;1.60;;;9.30;99.90;;;;;;3579120;40;20076;-73
2021/04/02 13:32:09;;;;;;;12.82;2.22;;;8.60;99.90;;;;;;3579978;40;20143;-74
2021/04/02 13:34:35;;;;;;;11.63;2.22;;;8.80;99.90;;;;;;3579763;40;20077;-73
2021/04/02 13:37:01;;;;;;;11.48;2.45;;;8.90;99.90;;;;;;3581529;40;20128;-76
2021/04/02 13:39:26;;;;;;;9.25;2.30;;;8.90;99.90;;;;;;3579668;40;20189;-73
2021/04/02 13:41:52;;;;;;;14.25;2.10;;;9.00;99.90;;;;;;3580017;40;20076;-74
2021/04/02 13:44:17;;;;;;;14.25;1.67;;;8.80;99.90;;;;;;3579451;40;20187;-74
2021/04/02 13:46:43;;;;;;;14.90;2.33;;;8.50;99.90;;;;;;3580227;40;20360;-73
2021/04/02 13:49:09;;;;;;;9.85;2.55;;;8.60;99.90;;;;;;3580941;40;20089;-72
2021/04/02 13:51:35;;;;;;;12.98;2.03;;;8.30;99.90;;;;;;3578238;40;20409;-73
2021/04/02 13:54:00;;;;;;;10.45;3.00;;;8.80;99.90;;;;;;3580847;40;20280;-72
2021/04/02 13:56:26;;;;;;;12.23;2.72;;;9.00;99.90;;;;;;3579734;40;20588;-73
2021/04/02 13:58:52;;;;;;;12.93;2.97;;;8.70;99.90;;;;;;3581166;40;20309;-75
2021/04/02 14:01:18;;;;;;;14.13;3.13;;;9.10;99.90;;;;;;3580033;40;20104;-73
2021/04/02 14:03:43;;;;;;;10.43;2.30;;;9.20;99.90;;;;;;3580630;40;20093;-74
2021/04/02 14:06:09;;;;;;;17.27;3.42;;;9.20;99.90;;;;;;3579619;40;20077;-73
2021/04/02 14:08:34;;;;;;;13.43;2.95;;;9.20;99.90;;;;;;3579721;40;20310;-75
2021/04/02 14:11:00;;;;;;;12.10;2.60;;;9.10;99.90;;;;;;3578676;40;20283;-75
2021/04/02 14:13:26;;;;;;;12.98;2.80;;;9.20;99.90;;;;;;3580646;40;20093;-73
2021/04/02 14:15:51;;;;;;;19.17;2.45;;;8.90;99.90;;;;;;3579290;40;20246;-73
2021/04/02 14:18:18;;;;;;;15.80;3.10;;;8.70;99.90;;;;;;3579556;40;20080;-75
2021/04/02 14:20:47;;;;;;;7.55;2.17;;;8.50;99.90;;;;;;3573445;40;20365;-75
2021/04/02 14:23:13;;;;;;;13.20;3.00;;;8.90;99.90;;;;;;3578580;40;20205;-74
2021/04/02 14:25:39;;;;;;;13.75;2.95;;;9.10;99.90;;;;;;3578796;40;20377;-74
2021/04/02 14:28:06;;;;;;;14.80;3.25;;;9.10;99.90;;;;;;3580261;40;20072;-74
2021/04/02 14:30:32;;;;;;;13.68;2.72;;;9.10;99.90;;;;;;3579032;40;20072;-73
2021/04/02 14:32:57;;;;;;;10.07;3.33;;;9.00;99.90;;;;;;3581409;40;20104;-74
2021/04/02 14:35:29;;;;;;;14.80;3.63;;;9.00;99.90;;;;;;3579882;40;20069;-74
2021/04/02 14:37:55;;;;;;;15.95;3.10;;;9.00;99.90;;;;;;3581829;40;20277;-74
2021/04/02 14:40:22;;;;;;;15.43;3.83;;;9.10;99.90;;;;;;3580441;40;20112;-73
2021/04/02 14:42:48;;;;;;;22.60;3.85;;;8.60;99.90;;;;;;3581698;40;20099;-73
2021/04/02 14:45:14;;;;;;;21.90;5.55;;;8.80;99.90;;;;;;3580861;40;20085;-74
2021/04/02 14:47:40;;;;;;;22.60;3.40;;;8.70;99.90;;;;;;3580907;40;20087;-74
2021/04/02 14:50:09;;;;;;;17.02;4.30;;;9.00;99.90;;;;;;3580509;40;20079;-75
2021/04/02 14:52:35;;;;;;;18.15;3.17;;;9.00;99.90;;;;;;3582018;40;20072;-73
2021/04/02 14:55:02;;;;;;;15.68;2.95;;;8.90;99.90;;;;;;3580898;40;20082;-75
2021/04/02 14:57:29;;;;;;;13.90;3.55;;;9.00;99.90;;;;;;3581435;40;20387;-74
2021/04/02 14:59:55;;;;;;;16.88;2.95;;;8.90;99.90;;;;;;3580860;40;20194;-74
2021/04/02 15:02:21;;;;;;;19.40;3.33;;;8.70;99.90;;;;;;3581445;40;20420;-74
2021/04/02 15:04:46;;;;;;;18.00;3.92;;;8.60;99.90;;;;;;3579155;40;20182;-72
2021/04/02 15:07:12;;;;;;;17.63;3.65;;;9.00;99.90;;;;;;3581463;40;20096;-74
2021/04/02 15:09:38;;;;;;;17.95;3.60;;;8.90;99.90;;;;;;3580921;40;20403;-75
2021/04/02 15:12:04;;;;;;;17.33;4.05;;;8.80;99.90;;;;;;3580294;40;20480;-74
2021/04/02 15:14:30;;;;;;;17.10;3.42;;;8.70;99.90;;;;;;3580805;40;20188;-73
2021/04/02 15:16:56;;;;;;;21.08;4.55;;;8.40;99.90;;;;;;3581444;40;20493;-74
2021/04/02 15:19:21;;;;;;;23.27;4.50;;;8.40;99.90;;;;;;3579983;40;20111;-74
2021/04/02 15:21:47;;;;;;;22.48;3.75;;;8.50;99.90;;;;;;3571692;40;20387;-73
2021/04/02 15:24:13;;;;;;;25.05;4.10;;;8.70;99.90;;;;;;3582134;40;20092;-74
2021/04/02 15:26:39;;;;;;;29.15;4.57;;;8.40;99.90;;;;;;3580828;40;20084;-75
2021/04/02 15:29:05;;;;;;;18.02;3.67;;;8.60;99.90;;;;;;3581632;40;20077;-74
2021/04/02 15:31:31;;;;;;;17.27;4.07;;;8.40;99.90;;;;;;3579948;40;20380;-73
2021/04/02 15:33:57;;;;;;;29.17;5.10;;;8.40;99.90;;;;;;3581695;40;20267;-74
2021/04/02 15:36:22;;;;;;;20.58;4.22;;;8.50;99.90;;;;;;3579808;40;20087;-76
2021/04/02 15:38:48;;;;;;;14.70;4.03;;;8.60;99.90;;;;;;3580798;40;20088;-73
2021/04/02 15:41:14;;;;;;;19.35;4.45;;;8.80;99.90;;;;;;3580274;40;20321;-74
2021/04/02 15:43:39;;;;;;;23.35;3.70;;;8.50;99.90;;;;;;3581418;40;20079;-74
2021/04/02 15:46:10;;;;;;;16.58;3.97;;;8.30;99.90;;;;;;3580789;40;20088;-74
2021/04/02 15:48:36;;;;;;;21.30;4.32;;;8.40;99.90;;;;;;3579828;40;20103;-75
2021/04/02 15:51:02;;;;;;;21.88;5.35;;;8.40;99.90;;;;;;3580056;40;20453;-75
2021/04/02 15:53:28;;;;;;;25.52;4.50;;;8.40;99.90;;;;;;3581122;40;20073;-74
2021/04/02 15:55:54;;;;;;;20.92;4.88;;;8.30;99.90;;;;;;3580331;40;20092;-74
2021/04/02 15:58:19;;;;;;;21.90;4.53;;;8.20;99.90;;;;;;3580976;40;20080;-73
2021/04/02 16:00:45;;;;;;;18.50;3.97;;;8.10;99.90;;;;;;3580384;40;20322;-74
2021/04/02 16:03:11;;;;;;;22.67;5.47;;;8.40;99.90;;;;;;3581393;40;20205;-75
2021/04/02 16:05:36;;;;;;;27.88;5.25;;;8.60;99.90;;;;;;3580122;40;20087;-74
2021/04/02 16:08:03;;;;;;;19.80;4.72;;;8.50;99.90;;;;;;3580152;40;20085;-76
2021/04/02 16:10:31;;;;;;;20.67;4.95;;;8.50;99.90;;;;;;3580403;40;20361;-74
2021/04/02 16:12:58;;;;;;;25.85;4.80;;;8.60;99.90;;;;;;3581074;40;20091;-73
2021/04/02 16:15:26;;;;;;;20.42;5.22;;;8.30;99.90;;;;;;3580930;40;20372;-76
2021/04/02 16:17:53;;;;;;;30.58;5.22;;;8.50;99.90;;;;;;3580977;40;20084;-77
2021/04/02 16:20:19;;;;;;;21.63;4.22;;;8.40;99.90;;;;;;3576569;40;21813;-77
2021/04/02 16:22:45;;;;;;;22.27;4.35;;;8.20;99.90;;;;;;3580529;40;20076;-75
2021/04/02 16:25:11;;;;;;;19.08;4.47;;;8.50;99.90;;;;;;3580855;40;20436;-74
2021/04/02 16:27:38;;;;;;;26.52;5.32;;;8.40;99.90;;;;;;3580170;40;20073;-73
2021/04/02 16:30:05;;;;;;;21.00;4.72;;;8.40;99.90;;;;;;3580594;40;20073;-74
2021/04/02 16:32:31;;;;;;;21.30;5.38;;;8.40;99.90;;;;;;3581161;40;20427;-74
2021/04/02 16:34:56;;;;;;;34.55;6.93;;;8.30;99.90;;;;;;3580051;40;20081;-75
2021/04/02 16:37:24;;;;;;;32.88;6.25;;;8.20;99.90;;;;;;3580898;40;20080;-74
2021/04/02 16:39:51;;;;;;;29.88;5.97;;;8.20;99.90;;;;;;3580357;40;20404;-74
2021/04/02 16:42:17;;;;;;;33.40;7.47;;;8.20;99.90;;;;;;3580946;40;20080;-74
2021/04/02 16:44:42;;;;;;;22.92;6.15;;;8.10;99.90;;;;;;3580499;40;20382;-73
2021/04/02 16:47:08;;;;;;;27.02;6.30;;;8.30;99.90;;;;;;3580573;40;20499;-75
2021/04/02 16:49:33;;;;;;;27.95;6.95;;;8.10;99.90;;;;;;3579472;40;20084;-74
2021/04/02 16:51:59;;;;;;;30.63;6.68;;;8.20;99.90;;;;;;3581036;40;20310;-73
2021/04/02 16:54:25;;;;;;;30.35;8.00;;;8.40;99.90;;;;;;3579074;40;20088;-75
2021/04/02 16:56:50;;;;;;;28.70;7.00;;;8.10;99.90;;;;;;3582321;40;20278;-75
2021/04/02 16:59:16;;;;;;;28.75;5.93;;;8.10;99.90;;;;;;3581180;40;20089;-75
2021/04/02 17:01:42;;;;;;;28.20;7.25;;;8.20;99.90;;;;;;3579865;40;20364;-73
2021/04/02 17:04:07;;;;;;;28.23;7.88;;;8.10;99.90;;;;;;3580354;40;20198;-75
2021/04/02 17:06:33;;;;;;;29.70;6.45;;;8.10;99.90;;;;;;3579818;40;20197;-73
2021/04/02 17:08:58;;;;;;;25.48;7.22;;;8.00;99.90;;;;;;3581021;40;20084;-74
2021/04/02 17:11:24;;;;;;;21.08;6.93;;;8.00;99.90;;;;;;3580820;40;20101;-74
2021/04/02 17:13:50;;;;;;;25.00;6.90;;;7.90;99.90;;;;;;3589407;40;20175;-74
2021/04/02 17:16:16;;;;;;;21.70;6.22;;;7.80;99.90;;;;;;3585125;39;20257;-74
2021/04/02 17:18:43;;;;;;;39.60;8.40;;;7.90;99.90;;;;;;3581202;40;20100;-75
2021/04/02 17:21:09;;;;;;;29.98;6.78;;;7.90;99.90;;;;;;3575991;40;20095;-75
2021/04/02 17:23:35;;;;;;;27.73;7.78;;;8.00;99.90;;;;;;3580910;40;20108;-72
2021/04/02 17:26:04;;;;;;;39.95;7.80;;;7.80;99.90;;;;;;3581257;40;20257;-73
2021/04/02 17:28:29;;;;;;;27.15;8.07;;;7.70;99.90;;;;;;3579243;40;20100;-75
2021/04/02 17:30:55;;;;;;;36.25;9.70;;;7.70;99.90;;;;;;3574938;40;20114;-73
2021/04/02 17:33:21;;;;;;;26.58;8.20;;;7.90;99.90;;;;;;3580595;40;20099;-75
2021/04/02 17:35:46;;;;;;;25.30;8.23;;;7.90;99.90;;;;;;3581372;40;20084;-74
2021/04/02 17:38:12;;;;;;;45.08;11.70;;;7.90;99.90;;;;;;3580901;40;20174;-73
2021/04/02 17:40:38;;;;;;;30.20;9.55;;;7.80;99.90;;;;;;3577376;40;20463;-74
2021/04/02 17:43:04;;;;;;;45.45;8.45;;;7.70;99.90;;;;;;3572772;40;20065;-74
2021/04/02 17:45:29;;;;;;;30.77;7.88;;;7.70;99.90;;;;;;3574017;40;20119;-72
2021/04/02 17:47:55;;;;;;;30.27;8.25;;;7.80;99.90;;;;;;3581139;40;20073;-75
2021/04/02 17:50:21;;;;;;;40.20;8.43;;;7.80;99.90;;;;;;3579502;40;20156;-73
2021/04/02 17:52:47;;;;;;;34.60;8.27;;;7.60;99.90;;;;;;3581120;40;20085;-74
2021/04/02 17:55:13;;;;;;;29.35;6.97;;;7.60;99.90;;;;;;3579581;40;20103;-76
2021/04/02 17:57:39;;;;;;;38.58;7.82;;;7.50;99.90;;;;;;3581148;40;20174;-74
2021/04/02 18:00:07;;;;;;;33.80;7.93;;;7.40;99.90;;;;;;3580276;40;20279;-74
2021/04/02 18:02:33;;;;;;;34.63;7.57;;;7.30;99.90;;;;;;3580864;40;20079;-74
2021/04/02 18:04:59;;;;;;;32.33;7.13;;;7.30;99.90;;;;;;3579641;40;20208;-75
2021/04/02 18:07:24;;;;;;;36.53;8.95;;;7.20;99.90;;;;;;3580620;40;20081;-73
2021/04/02 18:09:50;;;;;;;35.38;8.52;;;7.30;99.90;;;;;;3579443;40;20119;-75
2021/04/02 18:12:17;;;;;;;41.72;7.85;;;7.30;99.90;;;;;;3581080;40;20072;-74
2021/04/02 18:14:43;;;;;;;33.45;8.05;;;7.30;99.90;;;;;;3578756;40;20327;-74
2021/04/02 18:17:08;;;;;;;42.92;9.27;;;7.30;99.90;;;;;;3579572;40;20392;-75
2021/04/02 18:19:38;;;;;;;43.65;8.48;;;7.30;99.90;;;;;;3579062;40;20592;-74
2021/04/02 18:22:05;;;;;;;36.63;8.52;;;7.20;99.90;;;;;;3581075;40;20185;-74
2021/04/02 18:24:32;;;;;;;33.33;8.70;;;7.30;99.90;;;;;;3579436;40;20065;-76
2021/04/02 18:26:59;;;;;;;39.47;8.35;;;7.20;99.90;;;;;;3581139;40;20179;-74
2021/04/02 18:29:24;;;;;;;37.83;9.55;;;7.30;99.90;;;;;;3579637;40;20081;-75
2021/04/02 18:31:51;;;;;;;33.55;8.57;;;7.20;99.90;;;;;;3579349;40;20198;-76
2021/04/02 18:34:16;;;;;;;47.00;8.48;;;7.20;99.90;;;;;;3580012;40;20073;-76
2021/04/02 18:36:42;;;;;;;38.95;6.97;;;7.30;99.90;;;;;;3579898;40;20185;-75
2021/04/02 18:39:08;;;;;;;42.70;9.50;;;7.30;99.90;;;;;;3580919;40;20697;-74
2021/04/02 18:41:35;;;;;;;42.03;8.48;;;7.20;99.90;;;;;;3577958;40;20156;-76
2021/04/02 18:44:02;;;;;;;41.95;9.65;;;7.10;99.90;;;;;;3580351;40;20094;-76
2021/04/02 18:46:28;;;;;;;40.75;8.40;;;7.20;99.90;;;;;;3579751;40;20084;-74
2021/04/02 18:48:55;;;;;;;37.85;8.30;;;7.20;99.90;;;;;;3580112;40;20089;-73
2021/04/02 18:51:21;;;;;;;41.75;10.32;;;7.30;99.90;;;;;;3579186;40;20083;-75
2021/04/02 18:53:46;;;;;;;35.97;8.00;;;7.30;99.90;;;;;;3580707;40;20084;-72
2021/04/02 18:56:12;;;;;;;31.08;7.38;;;7.30;99.90;;;;;;3579845;40;20068;-75